Reynolds, ND

7:19 AM CDT on May 24, 2015 (GMT -0500)
Climax | | Change Station
CLOSE
Current Station
Personal Weather Station
Location: Climax, MN
Elevation: 853 ft
Nearby Weather Stations

Elev 853 ft 47.61 °N, 96.81 °W | Updated 17 minutes ago

Clear
Clear
51.4 °F
Feels Like 51.4 °F
N
1.0
Wind Variable Wind from NNE
Gusts 3.0 mph

Today
High -- | Low -- °F
--% Chance of Precip.
Yesterday
High -- | Low -- °F
Precip. -- in
5:41 AM 9:10 PM
Waxing Crescent, 38% visible
Pressure 30.09 in
Visibility 10.0 miles
Clouds Scattered Clouds 25000 ft
Dew Point 46 °F
Humidity 82%
Rainfall 0.00 in
Snow Depth Not available.
UV 0 out of 12
Pollen 7.00 out of 12
Air Quality Not available.
Flu Activity Sporadic
METAR KGFK 241153Z 16004KT 10SM SCT250 10/08 A3008 RMK AO2 SLP187 T01000078 10117 20078 55006

More Conditions Fewer Conditions

Pressure 30.09 in
Visibility 10.0 miles
Clouds Scattered Clouds 25000 ft
Dew Point 46 °F
Humidity 82%
Rainfall 0.00 in
Snow Depth Not available.
UV 0 out of 12
Pollen 7.00 out of 12
Air Quality Not available.
Flu Activity Sporadic
METAR KGFK 241153Z 16004KT 10SM SCT250 10/08 A3008 RMK AO2 SLP187 T01000078 10117 20078 55006

More Conditions Fewer Conditions

10-Day Weather Forecast

Almanac

Astronomy

May. 24, 2015 Rise Set
Actual Time
Civil Twilight
Nautical Twilight
Astronomical Twilight
Moon
Length of Visible Light
Length of Day
Tomorrow will be .
, % of the Moon is Illuminated

Today's Extremes

State Highs State Lows

Community

WunderPhotos

Upload Photos

1,823,721 photos uploaded!

WunderBlogs® & News

Nearby

Air Quality

  Air Quality AQ Index Pollutant
Not available.

Snow Depth

Station Depth Elevation

Earthquake Activity

City Distance Mag. Time & Date
Minimum magnitude displayed is 2.5.

Coastal Water Temperatures

Place Temperature

Stations

Nearby Weather Stations

Station Location Temp. Windchill Dew Point Humidity Wind Precip. Elev Updated Type